Vinton, Ohio
Current Conditions -  °F | °C
As of 2:35 PM on Thursday 27 Nov 2014 (Local Time) from K3I2 Reporting Station
Light Snow Light Snow  
Wind Chill: 30°   Ceiling: 2900
Heat Index: 36°   Visibility: 7mi
Dew Point: 28°   Wind: 7mph
Humidity: 75%   Direction: 290°WNW
Pressure: 30.24"   Gusts: NA
Location:  38.98°N, 82.34°W
Report Text: K3I2 271935Z AUTO 29006KT 7SM -SN BKN029 OVC036 02/M02 A3024 RMK AO2
Loading
Personal Weather Stations






























Interactive Weather Map New forecast layout! Learn more

10-Day Weather Forecast

Advertisements
Track Severe Weather on mobile